Time;durP1;ratioP1;P1;durP2;ratioP2;P2;SDS_P1;SDS_P2;PMS_P1;PMS_P2;Temp;Humidity;BMP_temperature;BMP_pressure;BME280_temperature;BME280_humidity;BME280_pressure;Samples;Min_cycle;Max_cycle;Signal;HPM_P1;HPM_P2
2021/07/06 00:01:46;;;;;;;0.70;0.70;;;;;;;;;;5015891;28;20141;-77
2021/07/06 00:04:12;;;;;;;0.90;0.85;;;;;;;;;;5024543;28;20037;-76
2021/07/06 00:06:38;;;;;;;0.73;0.73;;;;;;;;;;5006496;28;20030;-77
2021/07/06 00:09:04;;;;;;;1.08;0.80;;;;;;;;;;5026287;28;20046;-79
2021/07/06 00:11:31;;;;;;;0.80;0.80;;;;;;;;;;5013589;28;20030;-78
2021/07/06 00:13:57;;;;;;;0.77;0.77;;;;;;;;;;4987415;28;20391;-78
2021/07/06 00:16:23;;;;;;;1.58;0.90;;;;;;;;;;5004488;28;20054;-77
2021/07/06 00:18:49;;;;;;;0.70;0.70;;;;;;;;;;5002839;28;20038;-77
2021/07/06 00:21:15;;;;;;;0.95;0.90;;;;;;;;;;5003966;28;20023;-78
2021/07/06 00:23:41;;;;;;;1.08;0.70;;;;;;;;;;5000408;28;20031;-78
2021/07/06 00:26:08;;;;;;;0.60;0.60;;;;;;;;;;5001343;28;20026;-77
2021/07/06 00:28:34;;;;;;;1.55;0.93;;;;;;;;;;5004322;28;20027;-78
2021/07/06 00:31:00;;;;;;;0.70;0.70;;;;;;;;;;4992866;28;20023;-77
2021/07/06 00:33:30;;;;;;;0.70;0.70;;;;;;;;;;5003427;28;20026;-78
2021/07/06 00:35:59;;;;;;;0.77;0.77;;;;;;;;;;5028421;28;20038;-78
2021/07/06 00:38:28;;;;;;;0.70;0.70;;;;;;;;;;5029636;28;20036;-78
2021/07/06 00:40:57;;;;;;;0.88;0.82;;;;;;;;;;4986937;28;20487;-78
2021/07/06 00:43:23;;;;;;;0.98;0.77;;;;;;;;;;5005510;28;20026;-77
2021/07/06 00:45:50;;;;;;;1.00;1.00;;;;;;;;;;5004486;28;20110;-78
2021/07/06 00:48:16;;;;;;;0.88;0.88;;;;;;;;;;5004662;28;20023;-76
2021/07/06 00:50:43;;;;;;;0.90;0.90;;;;;;;;;;5016341;28;20111;-76
2021/07/06 00:53:09;;;;;;;0.90;0.80;;;;;;;;;;5017601;28;20015;-78
2021/07/06 00:55:35;;;;;;;0.73;0.73;;;;;;;;;;5004658;28;20399;-78
2021/07/06 00:58:01;;;;;;;0.70;0.70;;;;;;;;;;5002286;28;20037;-78
2021/07/06 01:00:27;;;;;;;0.80;0.80;;;;;;;;;;5009125;28;20030;-77
2021/07/06 01:02:54;;;;;;;0.88;0.88;;;;;;;;;;5009079;28;20037;-78
2021/07/06 01:05:21;;;;;;;0.60;0.60;;;;;;;;;;5003615;28;20042;-78
2021/07/06 01:07:47;;;;;;;0.80;0.80;;;;;;;;;;4984904;28;20031;-79
2021/07/06 01:10:14;;;;;;;0.80;0.70;;;;;;;;;;4986909;28;20026;-77
2021/07/06 01:12:41;;;;;;;1.17;0.70;;;;;;;;;;5002441;28;20019;-77
2021/07/06 01:15:09;;;;;;;1.13;0.98;;;;;;;;;;5004611;28;20113;-78
2021/07/06 01:17:37;;;;;;;0.88;0.88;;;;;;;;;;5001049;28;20571;-78
2021/07/06 01:20:11;;;;;;;1.15;1.00;;;;;;;;;;5001620;28;20134;-78
2021/07/06 01:22:37;;;;;;;0.55;0.55;;;;;;;;;;5002867;28;20031;-78
2021/07/06 01:25:05;;;;;;;0.82;0.82;;;;;;;;;;5006710;28;20470;-77
2021/07/06 01:27:31;;;;;;;1.88;0.80;;;;;;;;;;5000258;28;20023;-78
2021/07/06 01:29:57;;;;;;;0.90;0.77;;;;;;;;;;5012103;28;20034;-78
2021/07/06 01:32:23;;;;;;;0.80;0.80;;;;;;;;;;5011236;28;20037;-78
2021/07/06 01:34:50;;;;;;;2.22;0.65;;;;;;;;;;5018088;28;20030;-79
2021/07/06 01:37:19;;;;;;;0.60;0.60;;;;;;;;;;5023454;28;20088;-78
2021/07/06 01:39:46;;;;;;;1.40;0.93;;;;;;;;;;5004981;28;20132;-78
2021/07/06 01:42:15;;;;;;;0.73;0.73;;;;;;;;;;4994039;28;20110;-77
2021/07/06 01:44:42;;;;;;;0.98;0.88;;;;;;;;;;5002421;28;20069;-77
2021/07/06 01:47:08;;;;;;;0.70;0.70;;;;;;;;;;5002680;28;20030;-77
2021/07/06 01:49:35;;;;;;;0.95;0.93;;;;;;;;;;4991247;28;20019;-77
2021/07/06 01:52:01;;;;;;;0.80;0.73;;;;;;;;;;5005418;28;20093;-78
2021/07/06 01:54:27;;;;;;;0.68;0.68;;;;;;;;;;4981435;28;20022;-78
2021/07/06 01:56:53;;;;;;;0.70;0.70;;;;;;;;;;5000407;28;20046;-77
2021/07/06 01:59:19;;;;;;;0.57;0.57;;;;;;;;;;4996642;28;20097;-77
2021/07/06 02:01:46;;;;;;;0.63;0.63;;;;;;;;;;4994399;28;20096;-77
2021/07/06 02:04:16;;;;;;;0.60;0.60;;;;;;;;;;5004212;28;20034;-78
2021/07/06 02:06:43;;;;;;;0.60;0.60;;;;;;;;;;5002845;28;20032;-77
2021/07/06 02:09:09;;;;;;;1.05;0.80;;;;;;;;;;4986836;28;20082;-77
2021/07/06 02:11:36;;;;;;;0.85;0.85;;;;;;;;;;5018926;23;20064;-75
2021/07/06 02:14:03;;;;;;;0.90;0.90;;;;;;;;;;5032559;28;20055;-75
2021/07/06 02:16:29;;;;;;;0.70;0.70;;;;;;;;;;5032358;28;20021;-75
2021/07/06 02:18:55;;;;;;;1.83;0.77;;;;;;;;;;5032255;28;20067;-75
2021/07/06 02:21:21;;;;;;;0.90;0.70;;;;;;;;;;5035502;28;20036;-75
2021/07/06 02:23:49;;;;;;;0.88;0.88;;;;;;;;;;5022588;28;20037;-75
2021/07/06 02:26:15;;;;;;;1.88;0.77;;;;;;;;;;5012570;28;20072;-75
2021/07/06 02:28:42;;;;;;;0.75;0.70;;;;;;;;;;5015916;28;20477;-75
2021/07/06 02:31:08;;;;;;;0.93;0.90;;;;;;;;;;5041058;28;20449;-75
2021/07/06 02:33:35;;;;;;;0.80;0.68;;;;;;;;;;5052302;28;20083;-75
2021/07/06 02:36:03;;;;;;;1.55;0.70;;;;;;;;;;5052202;28;20017;-75
2021/07/06 02:38:29;;;;;;;1.02;0.93;;;;;;;;;;5051700;28;20021;-75
2021/07/06 02:40:55;;;;;;;0.65;0.65;;;;;;;;;;5046574;28;20025;-75
2021/07/06 02:43:21;;;;;;;0.90;0.82;;;;;;;;;;5032257;28;20017;-75
2021/07/06 02:45:47;;;;;;;1.17;1.10;;;;;;;;;;5031912;28;20026;-75
2021/07/06 02:48:14;;;;;;;0.77;0.77;;;;;;;;;;5031368;28;20029;-75
2021/07/06 02:50:41;;;;;;;0.70;0.70;;;;;;;;;;5031758;28;20032;-74
2021/07/06 02:53:10;;;;;;;1.15;0.65;;;;;;;;;;5032047;28;20021;-75
2021/07/06 02:55:36;;;;;;;0.90;0.90;;;;;;;;;;5031872;28;20401;-74
2021/07/06 02:58:02;;;;;;;1.20;0.98;;;;;;;;;;5031946;28;20101;-75
2021/07/06 03:00:29;;;;;;;0.70;0.70;;;;;;;;;;5039554;28;20365;-75
2021/07/06 03:02:59;;;;;;;0.63;0.63;;;;;;;;;;5032267;28;20109;-75
2021/07/06 03:05:27;;;;;;;0.90;0.90;;;;;;;;;;5014136;28;20029;-75
2021/07/06 03:07:53;;;;;;;1.00;1.00;;;;;;;;;;5031738;28;20421;-75
2021/07/06 03:10:24;;;;;;;0.55;0.55;;;;;;;;;;5013566;28;20524;-75
2021/07/06 03:12:50;;;;;;;1.10;0.80;;;;;;;;;;5019916;28;20030;-76
2021/07/06 03:15:17;;;;;;;1.13;1.02;;;;;;;;;;5011598;28;20056;-74
2021/07/06 03:17:44;;;;;;;1.65;0.85;;;;;;;;;;5011837;28;20037;-75
2021/07/06 03:20:11;;;;;;;0.70;0.70;;;;;;;;;;5011704;28;20479;-75
2021/07/06 03:22:39;;;;;;;0.70;0.70;;;;;;;;;;5018724;28;20033;-76
2021/07/06 03:25:06;;;;;;;0.73;0.70;;;;;;;;;;5030920;28;20513;-74
2021/07/06 03:27:32;;;;;;;0.80;0.80;;;;;;;;;;5031681;28;20026;-75
2021/07/06 03:29:58;;;;;;;0.57;0.57;;;;;;;;;;5039016;28;20092;-75
2021/07/06 03:32:24;;;;;;;1.52;0.80;;;;;;;;;;5040256;28;20304;-75
2021/07/06 03:34:50;;;;;;;1.00;1.00;;;;;;;;;;5031537;28;20036;-75
2021/07/06 03:37:16;;;;;;;0.60;0.60;;;;;;;;;;5031378;28;20033;-75
2021/07/06 03:39:42;;;;;;;0.80;0.80;;;;;;;;;;5031272;28;20494;-75
2021/07/06 03:42:09;;;;;;;0.45;0.45;;;;;;;;;;5031811;28;20093;-75
2021/07/06 03:44:35;;;;;;;1.65;1.05;;;;;;;;;;5013919;28;20210;-75
2021/07/06 03:47:02;;;;;;;2.15;0.77;;;;;;;;;;5011379;28;20101;-75
2021/07/06 03:49:28;;;;;;;0.75;0.60;;;;;;;;;;5011510;28;20029;-75
2021/07/06 03:51:54;;;;;;;0.90;0.70;;;;;;;;;;5011568;28;20026;-75
2021/07/06 03:54:20;;;;;;;0.60;0.60;;;;;;;;;;5024153;28;20105;-75
2021/07/06 03:56:46;;;;;;;0.80;0.80;;;;;;;;;;5031617;28;20029;-75
2021/07/06 03:59:12;;;;;;;1.00;0.90;;;;;;;;;;5033308;28;20034;-75
2021/07/06 04:01:38;;;;;;;0.77;0.77;;;;;;;;;;5046038;28;20400;-74
2021/07/06 04:04:04;;;;;;;0.93;0.93;;;;;;;;;;5046423;28;20035;-75
2021/07/06 04:06:31;;;;;;;0.60;0.60;;;;;;;;;;5034941;28;20032;-75
2021/07/06 04:08:57;;;;;;;0.80;0.80;;;;;;;;;;5034670;28;20034;-75
2021/07/06 04:11:23;;;;;;;0.80;0.80;;;;;;;;;;5017037;28;20044;-75
2021/07/06 04:13:49;;;;;;;0.50;0.50;;;;;;;;;;5032057;28;20048;-75
2021/07/06 04:16:16;;;;;;;0.65;0.65;;;;;;;;;;5015108;28;20028;-75
2021/07/06 04:18:42;;;;;;;1.05;0.80;;;;;;;;;;5014927;28;20112;-75
2021/07/06 04:21:08;;;;;;;0.55;0.55;;;;;;;;;;5015342;28;20291;-75
2021/07/06 04:23:35;;;;;;;0.80;0.80;;;;;;;;;;5015278;28;20030;-75
2021/07/06 04:26:01;;;;;;;0.80;0.80;;;;;;;;;;5015486;28;20080;-75
2021/07/06 04:28:27;;;;;;;0.90;0.90;;;;;;;;;;5028880;28;20058;-75
2021/07/06 04:30:53;;;;;;;0.50;0.50;;;;;;;;;;5042721;28;20104;-75
2021/07/06 04:33:19;;;;;;;0.98;0.85;;;;;;;;;;5054581;28;20021;-75
2021/07/06 04:35:46;;;;;;;1.23;1.08;;;;;;;;;;5040072;28;20075;-75
2021/07/06 04:38:12;;;;;;;2.83;0.90;;;;;;;;;;5034425;28;20025;-75
2021/07/06 04:40:39;;;;;;;0.80;0.80;;;;;;;;;;5016801;28;20018;-75
2021/07/06 04:43:08;;;;;;;0.80;0.80;;;;;;;;;;5034687;28;20080;-76
2021/07/06 04:45:34;;;;;;;1.00;0.90;;;;;;;;;;5025180;28;20030;-76
2021/07/06 04:48:01;;;;;;;1.15;0.82;;;;;;;;;;5014633;28;20026;-76
2021/07/06 04:50:27;;;;;;;1.30;0.90;;;;;;;;;;5014290;28;20029;-74
2021/07/06 04:52:53;;;;;;;0.73;0.73;;;;;;;;;;5014841;28;20064;-75
2021/07/06 04:55:20;;;;;;;1.50;0.63;;;;;;;;;;4997449;28;20501;-75
2021/07/06 04:57:46;;;;;;;1.02;0.73;;;;;;;;;;5014752;28;20112;-75
2021/07/06 05:00:13;;;;;;;1.50;0.90;;;;;;;;;;5038332;28;20104;-75
2021/07/06 05:02:39;;;;;;;1.63;0.90;;;;;;;;;;5048841;28;20029;-75
2021/07/06 05:05:06;;;;;;;3.03;1.33;;;;;;;;;;5053675;28;20065;-75
2021/07/06 05:07:35;;;;;;;1.05;0.70;;;;;;;;;;5034117;28;20029;-75
2021/07/06 05:10:01;;;;;;;0.77;0.77;;;;;;;;;;5033856;28;20075;-76
2021/07/06 05:12:28;;;;;;;0.90;0.90;;;;;;;;;;5016440;28;20030;-76
2021/07/06 05:14:54;;;;;;;0.85;0.85;;;;;;;;;;5034255;28;20395;-76
2021/07/06 05:17:20;;;;;;;0.63;0.63;;;;;;;;;;5018556;28;20026;-76
2021/07/06 05:19:46;;;;;;;0.70;0.70;;;;;;;;;;5014775;28;20053;-76
2021/07/06 05:22:12;;;;;;;2.30;0.65;;;;;;;;;;5013989;28;20026;-76
2021/07/06 05:24:38;;;;;;;0.77;0.68;;;;;;;;;;5013806;28;20080;-76
2021/07/06 05:27:05;;;;;;;2.65;0.70;;;;;;;;;;5023648;28;20021;-76
2021/07/06 05:29:31;;;;;;;2.08;0.90;;;;;;;;;;5037603;28;20436;-77
2021/07/06 05:31:57;;;;;;;0.70;0.70;;;;;;;;;;5044189;28;20021;-76
2021/07/06 05:34:23;;;;;;;1.08;1.00;;;;;;;;;;5053571;28;20048;-77
2021/07/06 05:36:50;;;;;;;1.17;1.08;;;;;;;;;;5047504;28;20037;-76
2021/07/06 05:39:16;;;;;;;1.15;0.80;;;;;;;;;;5033731;28;20025;-77
2021/07/06 05:41:42;;;;;;;1.10;1.00;;;;;;;;;;5034673;28;20030;-77
2021/07/06 05:44:09;;;;;;;0.88;0.88;;;;;;;;;;5034323;28;20099;-77
2021/07/06 05:46:35;;;;;;;3.53;1.13;;;;;;;;;;5032812;28;20053;-76
2021/07/06 05:49:01;;;;;;;1.42;1.33;;;;;;;;;;5034629;28;20025;-76
2021/07/06 05:51:27;;;;;;;2.05;1.00;;;;;;;;;;5033689;28;20033;-75
2021/07/06 05:53:53;;;;;;;0.88;0.88;;;;;;;;;;5032861;28;20181;-76
2021/07/06 05:56:20;;;;;;;1.00;1.00;;;;;;;;;;5025801;28;20052;-76
2021/07/06 05:58:46;;;;;;;1.08;1.00;;;;;;;;;;5032099;28;20034;-74
2021/07/06 06:01:12;;;;;;;3.38;1.20;;;;;;;;;;5031220;28;20028;-76
2021/07/06 06:03:38;;;;;;;1.52;1.42;;;;;;;;;;5032903;28;20053;-77
2021/07/06 06:06:05;;;;;;;0.93;0.93;;;;;;;;;;5033537;28;20032;-76
2021/07/06 06:08:31;;;;;;;1.20;1.10;;;;;;;;;;5022264;28;20285;-76
2021/07/06 06:10:57;;;;;;;2.20;1.10;;;;;;;;;;5021149;28;20045;-76
2021/07/06 06:13:23;;;;;;;1.63;0.98;;;;;;;;;;5024215;28;20042;-76
2021/07/06 06:15:49;;;;;;;4.43;1.05;;;;;;;;;;5029573;28;20498;-75
2021/07/06 06:18:15;;;;;;;1.50;1.40;;;;;;;;;;5027166;28;20037;-75
2021/07/06 06:20:41;;;;;;;3.33;1.50;;;;;;;;;;5032745;28;20466;-76
2021/07/06 06:23:07;;;;;;;1.25;1.17;;;;;;;;;;5032797;28;20371;-75
2021/07/06 06:25:33;;;;;;;1.08;0.95;;;;;;;;;;5033560;28;20079;-76
2021/07/06 06:27:59;;;;;;;1.33;1.23;;;;;;;;;;5015844;28;20533;-76
2021/07/06 06:30:26;;;;;;;3.17;1.15;;;;;;;;;;5029892;28;20055;-76
2021/07/06 06:32:55;;;;;;;1.33;1.00;;;;;;;;;;5037212;28;20018;-76
2021/07/06 06:35:21;;;;;;;2.30;1.02;;;;;;;;;;5033441;28;20044;-76
2021/07/06 06:37:47;;;;;;;1.35;1.10;;;;;;;;;;5041482;28;20083;-77
2021/07/06 06:40:13;;;;;;;1.27;1.23;;;;;;;;;;5039235;28;20033;-77
2021/07/06 06:42:39;;;;;;;0.95;0.80;;;;;;;;;;5034592;28;20409;-77
2021/07/06 06:45:06;;;;;;;1.10;0.95;;;;;;;;;;5028098;28;20073;-77
2021/07/06 06:47:32;;;;;;;1.00;1.00;;;;;;;;;;5017786;28;20033;-76
2021/07/06 06:49:58;;;;;;;1.50;1.40;;;;;;;;;;5024271;28;20056;-75
2021/07/06 06:52:24;;;;;;;0.93;0.93;;;;;;;;;;5024617;28;20489;-75
2021/07/06 06:54:50;;;;;;;1.98;1.10;;;;;;;;;;5027775;28;20037;-74
2021/07/06 06:57:21;;;;;;;2.92;1.05;;;;;;;;;;5028007;28;20053;-74
2021/07/06 06:59:47;;;;;;;0.82;0.82;;;;;;;;;;5044763;28;20021;-75
2021/07/06 07:02:16;;;;;;;1.13;1.13;;;;;;;;;;5026356;28;20034;-74
2021/07/06 07:04:43;;;;;;;2.78;1.25;;;;;;;;;;5014393;28;20033;-75
2021/07/06 07:07:09;;;;;;;1.27;1.17;;;;;;;;;;5033413;28;20026;-74
2021/07/06 07:09:35;;;;;;;1.30;1.08;;;;;;;;;;5028493;28;20033;-75
2021/07/06 07:12:01;;;;;;;1.67;1.15;;;;;;;;;;5017768;28;20029;-75
2021/07/06 07:14:27;;;;;;;0.90;0.90;;;;;;;;;;5028811;28;20508;-75
2021/07/06 07:16:53;;;;;;;0.93;0.90;;;;;;;;;;5031971;28;20100;-75
2021/07/06 07:19:19;;;;;;;1.25;0.80;;;;;;;;;;5031953;28;20032;-75
2021/07/06 07:21:45;;;;;;;1.92;1.00;;;;;;;;;;5032540;28;20025;-75
2021/07/06 07:24:11;;;;;;;1.73;0.88;;;;;;;;;;5014270;28;20025;-75
2021/07/06 07:26:37;;;;;;;2.38;1.08;;;;;;;;;;5025890;28;20372;-75
2021/07/06 07:29:05;;;;;;;0.82;0.82;;;;;;;;;;5020862;28;20096;-74
2021/07/06 07:31:31;;;;;;;2.30;1.30;;;;;;;;;;5042809;28;20021;-76
2021/07/06 07:33:58;;;;;;;1.05;0.95;;;;;;;;;;5030495;28;20033;-75
2021/07/06 07:36:24;;;;;;;1.20;1.10;;;;;;;;;;5034057;28;20040;-75
2021/07/06 07:38:50;;;;;;;0.75;0.75;;;;;;;;;;5032922;28;20056;-75
2021/07/06 07:41:16;;;;;;;1.40;0.88;;;;;;;;;;5024161;28;20065;-74
2021/07/06 07:43:42;;;;;;;1.95;0.93;;;;;;;;;;5024911;28;20104;-75
2021/07/06 07:46:08;;;;;;;1.02;0.93;;;;;;;;;;5036564;28;20049;-74
2021/07/06 07:48:34;;;;;;;3.90;0.80;;;;;;;;;;5022003;28;20037;-74
2021/07/06 07:51:00;;;;;;;1.05;0.88;;;;;;;;;;5018433;28;20026;-75
2021/07/06 07:53:26;;;;;;;0.80;0.80;;;;;;;;;;5036275;28;20025;-75
2021/07/06 07:55:53;;;;;;;1.50;0.90;;;;;;;;;;5022457;28;20101;-75
2021/07/06 07:58:20;;;;;;;1.13;0.88;;;;;;;;;;5000713;28;20033;-75
2021/07/06 08:00:46;;;;;;;2.53;0.93;;;;;;;;;;5041736;28;20025;-75
2021/07/06 08:03:12;;;;;;;1.60;0.60;;;;;;;;;;5017752;28;20037;-75
2021/07/06 08:05:38;;;;;;;2.50;0.80;;;;;;;;;;5017379;28;20068;-74
2021/07/06 08:08:04;;;;;;;0.80;0.70;;;;;;;;;;5016928;28;20104;-74
2021/07/06 08:10:30;;;;;;;0.70;0.70;;;;;;;;;;5015947;28;20076;-76
2021/07/06 08:12:57;;;;;;;1.73;0.75;;;;;;;;;;5053885;22;20034;-83
2021/07/06 08:15:23;;;;;;;1.35;0.60;;;;;;;;;;5010226;28;20048;-80
2021/07/06 08:17:49;;;;;;;0.73;0.73;;;;;;;;;;5027174;28;20026;-82
2021/07/06 08:20:15;;;;;;;10.43;0.82;;;;;;;;;;5037064;28;20037;-81
2021/07/06 08:22:41;;;;;;;0.50;0.50;;;;;;;;;;5030175;28;20121;-79
2021/07/06 08:25:08;;;;;;;2.33;0.80;;;;;;;;;;5022899;28;20037;-82
2021/07/06 08:27:34;;;;;;;0.80;0.65;;;;;;;;;;5027762;28;20018;-81
2021/07/06 08:30:01;;;;;;;0.98;0.98;;;;;;;;;;5038769;28;20013;-78
2021/07/06 08:32:27;;;;;;;1.92;0.68;;;;;;;;;;5046420;28;20050;-77
2021/07/06 08:34:53;;;;;;;1.63;1.20;;;;;;;;;;5009255;28;20112;-79
2021/07/06 08:37:19;;;;;;;0.88;0.73;;;;;;;;;;5005094;28;20065;-80
2021/07/06 08:39:45;;;;;;;5.50;0.85;;;;;;;;;;5023356;28;20030;-79
2021/07/06 08:42:11;;;;;;;2.65;0.68;;;;;;;;;;5023185;28;20378;-79
2021/07/06 08:44:39;;;;;;;0.90;0.60;;;;;;;;;;5009733;28;20080;-78
2021/07/06 08:47:06;;;;;;;0.75;0.75;;;;;;;;;;5037575;28;20013;-79
2021/07/06 08:49:32;;;;;;;0.52;0.50;;;;;;;;;;5020283;28;20041;-82
2021/07/06 08:51:59;;;;;;;1.33;0.73;;;;;;;;;;5024703;28;20030;-81
2021/07/06 08:54:25;;;;;;;0.75;0.75;;;;;;;;;;5022837;28;20026;-79
2021/07/06 08:56:51;;;;;;;2.85;0.98;;;;;;;;;;5023836;28;20033;-79
2021/07/06 08:59:17;;;;;;;0.82;0.57;;;;;;;;;;5026578;28;20022;-80
2021/07/06 09:01:43;;;;;;;1.92;0.75;;;;;;;;;;5020045;28;20104;-80
2021/07/06 09:04:11;;;;;;;2.05;0.63;;;;;;;;;;5037623;28;20034;-81
2021/07/06 09:06:54;;;;;;;0.85;0.73;;;;;;;;;;5008505;28;20040;-83
2021/07/06 09:09:28;;;;;;;1.63;0.60;;;;;;;;;;5026038;28;20432;-83
2021/07/06 09:11:56;;;;;;;0.57;0.57;;;;;;;;;;5026537;28;20034;-82
2021/07/06 09:14:25;;;;;;;0.47;0.47;;;;;;;;;;5027039;28;20446;-83
2021/07/06 09:16:51;;;;;;;0.50;0.50;;;;;;;;;;5032074;28;20006;-78
2021/07/06 09:19:19;;;;;;;0.55;0.55;;;;;;;;;;5032216;28;20033;-81
2021/07/06 09:21:46;;;;;;;0.60;0.60;;;;;;;;;;5021563;28;20410;-83
2021/07/06 09:24:22;;;;;;;0.63;0.63;;;;;;;;;;5030244;28;20045;-82
2021/07/06 09:26:48;;;;;;;0.90;0.70;;;;;;;;;;5018132;28;20052;-81
2021/07/06 09:29:16;;;;;;;0.50;0.50;;;;;;;;;;5022454;28;20052;-80
2021/07/06 09:31:43;;;;;;;0.80;0.73;;;;;;;;;;5031378;28;20037;-79
2021/07/06 09:34:11;;;;;;;0.80;0.75;;;;;;;;;;5045270;28;20030;-80
2021/07/06 09:36:43;;;;;;;0.80;0.80;;;;;;;;;;5029601;28;20034;-78
2021/07/06 09:39:15;;;;;;;0.80;0.80;;;;;;;;;;5031163;28;20026;-79
2021/07/06 09:41:45;;;;;;;1.25;0.90;;;;;;;;;;5031745;28;20030;-83
2021/07/06 09:44:14;;;;;;;0.85;0.85;;;;;;;;;;5013592;28;20083;-79
2021/07/06 09:46:48;;;;;;;2.25;0.70;;;;;;;;;;5025974;28;20053;-79
2021/07/06 09:49:16;;;;;;;1.98;0.90;;;;;;;;;;5026021;28;20024;-79
2021/07/06 09:51:42;;;;;;;0.70;0.60;;;;;;;;;;5021476;28;20018;-80
2021/07/06 09:54:08;;;;;;;2.60;0.80;;;;;;;;;;5026300;28;20033;-81
2021/07/06 09:56:40;;;;;;;1.10;0.90;;;;;;;;;;5018990;28;20037;-80
2021/07/06 09:59:07;;;;;;;1.65;0.80;;;;;;;;;;5018040;28;20017;-80
2021/07/06 10:01:33;;;;;;;1.80;0.80;;;;;;;;;;5010184;28;20113;-80
2021/07/06 10:03:59;;;;;;;0.73;0.73;;;;;;;;;;5005490;28;20033;-81
2021/07/06 10:06:29;;;;;;;1.27;1.05;;;;;;;;;;5019356;28;20386;-81
2021/07/06 10:08:56;;;;;;;0.93;0.70;;;;;;;;;;5020409;28;20017;-80
2021/07/06 10:11:24;;;;;;;1.38;0.88;;;;;;;;;;5039372;28;20017;-81
2021/07/06 10:13:50;;;;;;;0.82;0.82;;;;;;;;;;5030004;28;20044;-81
2021/07/06 10:16:17;;;;;;;0.90;0.82;;;;;;;;;;5019626;28;20433;-81
2021/07/06 10:18:44;;;;;;;0.73;0.50;;;;;;;;;;5019604;28;20067;-79
2021/07/06 10:21:11;;;;;;;0.63;0.63;;;;;;;;;;5019386;28;20026;-81
2021/07/06 10:23:39;;;;;;;1.48;0.70;;;;;;;;;;5006323;28;20022;-81
2021/07/06 10:26:07;;;;;;;1.10;0.65;;;;;;;;;;5029476;28;20083;-82
2021/07/06 10:28:33;;;;;;;1.38;0.90;;;;;;;;;;5015060;28;20723;-81
2021/07/06 10:31:31;;;;;;;;;;;;;;;;;;;;;
2021/07/06 10:34:00;;;;;;;0.93;0.93;;;;;;;;;;5028313;28;20061;-80
2021/07/06 10:36:41;;;;;;;1.90;1.20;;;;;;;;;;5010951;28;20089;-79
2021/07/06 10:39:08;;;;;;;1.23;1.13;;;;;;;;;;5027043;28;20050;-78
2021/07/06 10:41:34;;;;;;;1.20;1.20;;;;;;;;;;5029446;28;20108;-79
2021/07/06 10:44:02;;;;;;;1.20;1.08;;;;;;;;;;5027065;28;20493;-80
2021/07/06 10:46:37;;;;;;;1.20;0.90;;;;;;;;;;5029335;28;20022;-80
2021/07/06 10:49:15;;;;;;;2.15;0.80;;;;;;;;;;5023016;28;20021;-82
2021/07/06 10:51:41;;;;;;;0.70;0.70;;;;;;;;;;5025647;28;20014;-80
2021/07/06 10:54:16;;;;;;;1.40;0.90;;;;;;;;;;5026968;28;20022;-81
2021/07/06 10:56:43;;;;;;;1.00;1.00;;;;;;;;;;5026049;28;20017;-79
2021/07/06 10:59:26;;;;;;;0.90;0.90;;;;;;;;;;5029833;28;20037;-81
2021/07/06 11:02:12;;;;;;;1.00;1.00;;;;;;;;;;5027314;28;20497;-82
2021/07/06 11:04:51;;;;;;;1.27;0.98;;;;;;;;;;5026149;28;20029;-80
2021/07/06 11:07:29;;;;;;;0.95;0.95;;;;;;;;;;5041670;28;20080;-81
2021/07/06 11:09:55;;;;;;;1.65;1.00;;;;;;;;;;5029199;28;20048;-80
2021/07/06 11:12:34;;;;;;;0.98;0.88;;;;;;;;;;5034938;28;20042;-81
2021/07/06 11:15:04;;;;;;;1.55;0.90;;;;;;;;;;5033388;28;20026;-80
2021/07/06 11:17:38;;;;;;;0.93;0.90;;;;;;;;;;5033828;28;20056;-80
2021/07/06 11:20:04;;;;;;;2.25;0.90;;;;;;;;;;5035142;28;20030;-81
2021/07/06 11:22:39;;;;;;;1.77;0.98;;;;;;;;;;5033127;28;20026;-81
2021/07/06 11:25:23;;;;;;;3.40;1.10;;;;;;;;;;5032616;28;20046;-79
2021/07/06 11:28:01;;;;;;;0.98;0.98;;;;;;;;;;5033457;28;20048;-80
2021/07/06 11:30:29;;;;;;;1.92;0.77;;;;;;;;;;5044121;28;20052;-81
2021/07/06 11:33:14;;;;;;;1.27;0.73;;;;;;;;;;5049665;28;20021;-80
2021/07/06 11:35:47;;;;;;;2.13;0.90;;;;;;;;;;5028501;28;20049;-81
2021/07/06 11:38:15;;;;;;;2.85;0.70;;;;;;;;;;5035211;28;20093;-79
2021/07/06 11:40:42;;;;;;;1.20;0.70;;;;;;;;;;5034729;28;20030;-80
2021/07/06 11:43:09;;;;;;;2.17;1.20;;;;;;;;;;5036013;28;20034;-78
2021/07/06 11:45:36;;;;;;;0.88;0.88;;;;;;;;;;5035145;28;20026;-79
2021/07/06 11:48:10;;;;;;;1.02;0.60;;;;;;;;;;5019072;28;20050;-80
2021/07/06 11:50:36;;;;;;;2.70;0.80;;;;;;;;;;5024176;28;20038;-80
2021/07/06 11:53:13;;;;;;;1.05;0.93;;;;;;;;;;5023978;28;20045;-81
2021/07/06 11:55:40;;;;;;;1.02;0.70;;;;;;;;;;5022970;28;20030;-82
2021/07/06 11:58:08;;;;;;;1.08;0.80;;;;;;;;;;5021227;28;20117;-83
2021/07/06 12:00:35;;;;;;;2.05;1.05;;;;;;;;;;5028726;28;20041;-82
2021/07/06 12:03:18;;;;;;;3.60;0.90;;;;;;;;;;5022677;28;20022;-80
2021/07/06 12:05:45;;;;;;;4.47;0.80;;;;;;;;;;5040861;28;20051;-81
2021/07/06 12:08:14;;;;;;;0.73;0.70;;;;;;;;;;5022234;28;20018;-83
2021/07/06 12:10:51;;;;;;;1.83;0.68;;;;;;;;;;5019521;28;20014;-82
2021/07/06 12:13:17;;;;;;;4.57;1.10;;;;;;;;;;5019288;28;20034;-81
2021/07/06 12:15:46;;;;;;;0.75;0.60;;;;;;;;;;5036516;28;20068;-82
2021/07/06 12:18:13;;;;;;;1.70;0.90;;;;;;;;;;5036301;28;20025;-82
2021/07/06 12:20:39;;;;;;;1.80;1.20;;;;;;;;;;5033854;28;20148;-81
2021/07/06 12:23:05;;;;;;;1.55;0.88;;;;;;;;;;5015908;28;20030;-80
2021/07/06 12:25:31;;;;;;;1.20;1.10;;;;;;;;;;5032122;28;20037;-80
2021/07/06 12:27:58;;;;;;;1.55;1.30;;;;;;;;;;5032087;28;20026;-80
2021/07/06 12:30:24;;;;;;;0.82;0.82;;;;;;;;;;5017551;28;20482;-81
2021/07/06 12:33:07;;;;;;;0.70;0.70;;;;;;;;;;5032835;28;20030;-81
2021/07/06 12:35:33;;;;;;;1.48;0.98;;;;;;;;;;5012356;28;20037;-80
2021/07/06 12:38:06;;;;;;;1.80;0.88;;;;;;;;;;5028564;28;20034;-80
2021/07/06 12:40:32;;;;;;;0.68;0.68;;;;;;;;;;5027665;28;20028;-78
2021/07/06 12:42:58;;;;;;;1.15;1.00;;;;;;;;;;5011709;28;20018;-79
2021/07/06 12:45:34;;;;;;;2.58;0.70;;;;;;;;;;5011962;28;20045;-78
2021/07/06 12:48:00;;;;;;;1.73;0.80;;;;;;;;;;5011360;28;20489;-79
2021/07/06 12:50:27;;;;;;;1.85;0.75;;;;;;;;;;5011409;28;20060;-80
2021/07/06 12:52:54;;;;;;;2.67;1.00;;;;;;;;;;5030427;28;20030;-81
2021/07/06 12:55:25;;;;;;;0.88;0.88;;;;;;;;;;5011024;28;20517;-78
2021/07/06 12:57:52;;;;;;;1.10;1.10;;;;;;;;;;5011350;28;20026;-82
2021/07/06 13:00:21;;;;;;;1.40;1.30;;;;;;;;;;5040806;28;20072;-81
2021/07/06 13:03:17;;;;;;;0.70;0.70;;;;;;;;;;5024542;28;20018;-82
2021/07/06 13:05:47;;;;;;;2.30;1.00;;;;;;;;;;5033014;28;20061;-81
2021/07/06 13:08:20;;;;;;;0.73;0.73;;;;;;;;;;5031127;28;20029;-81
2021/07/06 13:10:47;;;;;;;1.45;1.20;;;;;;;;;;5012334;28;20057;-79
2021/07/06 13:13:21;;;;;;;0.93;0.93;;;;;;;;;;5014143;28;20038;-82
2021/07/06 13:15:51;;;;;;;0.75;0.75;;;;;;;;;;5015983;28;20049;-79
2021/07/06 13:18:21;;;;;;;1.40;1.30;;;;;;;;;;5014260;28;20030;-81
2021/07/06 13:20:51;;;;;;;1.80;1.70;;;;;;;;;;5014134;28;20014;-79
2021/07/06 13:23:17;;;;;;;1.60;1.50;;;;;;;;;;5017373;28;20041;-79
2021/07/06 13:25:44;;;;;;;1.20;1.20;;;;;;;;;;5037112;28;20034;-82
2021/07/06 13:28:13;;;;;;;1.15;1.10;;;;;;;;;;5020914;28;20041;-82
2021/07/06 13:30:46;;;;;;;1.23;1.23;;;;;;;;;;5017274;28;20052;-80
2021/07/06 13:33:14;;;;;;;1.45;1.35;;;;;;;;;;5013876;28;20006;-80
2021/07/06 13:35:41;;;;;;;1.23;0.95;;;;;;;;;;5012765;28;20045;-80
2021/07/06 13:38:10;;;;;;;0.68;0.68;;;;;;;;;;5014235;28;20048;-79
2021/07/06 13:40:36;;;;;;;1.02;0.93;;;;;;;;;;5013898;28;20117;-80
2021/07/06 13:43:03;;;;;;;1.00;1.00;;;;;;;;;;5013136;28;20116;-80
2021/07/06 13:45:29;;;;;;;1.77;1.00;;;;;;;;;;5012298;28;20049;-79
2021/07/06 13:47:55;;;;;;;2.60;2.40;;;;;;;;;;5013821;28;20078;-81
2021/07/06 13:50:25;;;;;;;1.38;1.27;;;;;;;;;;5029930;28;20010;-80
2021/07/06 13:52:51;;;;;;;1.05;1.00;;;;;;;;;;5030441;28;20029;-78
2021/07/06 13:55:26;;;;;;;1.10;1.10;;;;;;;;;;5030753;28;20037;-80
2021/07/06 13:57:52;;;;;;;1.50;1.10;;;;;;;;;;5014380;28;20026;-80
2021/07/06 14:00:18;;;;;;;4.25;0.80;;;;;;;;;;5015767;28;20052;-79
2021/07/06 14:02:45;;;;;;;1.20;1.10;;;;;;;;;;5049425;28;20021;-80
2021/07/06 14:05:14;;;;;;;1.50;1.40;;;;;;;;;;5017313;28;20036;-81
2021/07/06 14:07:40;;;;;;;1.67;1.00;;;;;;;;;;5011020;28;20124;-79
2021/07/06 14:10:08;;;;;;;0.90;0.90;;;;;;;;;;5030054;28;20022;-82
2021/07/06 14:12:34;;;;;;;1.10;1.05;;;;;;;;;;5036595;23;20053;-76
2021/07/06 14:15:00;;;;;;;2.42;1.10;;;;;;;;;;5033581;28;20033;-76
2021/07/06 14:17:26;;;;;;;1.27;0.95;;;;;;;;;;5050747;28;20059;-77
2021/07/06 14:19:52;;;;;;;2.47;1.08;;;;;;;;;;5051514;28;20397;-76
2021/07/06 14:22:18;;;;;;;1.40;0.80;;;;;;;;;;5040425;28;20100;-76
2021/07/06 14:24:44;;;;;;;2.50;1.00;;;;;;;;;;5030315;28;20464;-77
2021/07/06 14:27:11;;;;;;;1.77;1.10;;;;;;;;;;5029145;28;20103;-76
2021/07/06 14:29:37;;;;;;;2.45;0.80;;;;;;;;;;5031799;28;20358;-77
2021/07/06 14:32:04;;;;;;;0.98;0.98;;;;;;;;;;5039366;28;20026;-75
2021/07/06 14:34:30;;;;;;;1.17;0.98;;;;;;;;;;5033170;28;20022;-75
2021/07/06 14:36:56;;;;;;;2.30;1.00;;;;;;;;;;5033590;28;20080;-76
2021/07/06 14:39:22;;;;;;;1.40;1.30;;;;;;;;;;5031510;28;20030;-76
2021/07/06 14:41:53;;;;;;;0.82;0.82;;;;;;;;;;5022784;28;20084;-76
2021/07/06 14:44:21;;;;;;;0.80;0.80;;;;;;;;;;5013511;28;20026;-75
2021/07/06 14:46:47;;;;;;;0.93;0.93;;;;;;;;;;5013894;28;20026;-76